Time;durP1;ratioP1;P1;durP2;ratioP2;P2;SDS_P1;SDS_P2;PMS_P1;PMS_P2;Temp;Humidity;BMP_temperature;BMP_pressure;BME280_temperature;BME280_humidity;BME280_pressure;Samples;Min_cycle;Max_cycle;Signal;HPM_P1;HPM_P2
2023/09/19 00:01:14;;;;;;;18.05;13.90;;;;;;;12.17;70.98;101353.41;1771341;80;21381;-59
2023/09/19 00:04:28;;;;;;;18.75;12.53;;;;;;;12.16;71.09;101349.45;1785756;80;21361;-58
2023/09/19 00:07:30;;;;;;;16.90;13.35;;;;;;;12.14;71.10;101351.50;1745667;81;21220;-58
2023/09/19 00:10:36;;;;;;;20.43;13.25;;;;;;;12.10;71.14;101348.20;1773174;80;21362;-59
2023/09/19 00:13:43;;;;;;;16.85;13.48;;;;;;;12.05;71.16;101348.70;1729783;82;21351;-60
2023/09/19 00:16:52;;;;;;;17.07;12.95;;;;;;;12.04;71.29;101346.11;1742831;81;21205;-60
2023/09/19 00:19:59;;;;;;;17.40;13.72;;;;;;;12.03;71.35;101349.90;1744229;81;21354;-58
2023/09/19 00:23:08;;;;;;;18.35;13.15;;;;;;;12.01;71.46;101347.81;1740931;81;21390;-58
2023/09/19 00:26:14;;;;;;;18.35;13.68;;;;;;;11.97;71.36;101347.27;1737968;82;21347;-59
2023/09/19 00:29:21;;;;;;;19.25;13.65;;;;;;;11.93;71.39;101343.64;1739644;81;21394;-59
2023/09/19 00:32:31;;;;;;;18.20;13.48;;;;;;;11.90;71.46;101337.11;1737131;81;21331;-58
2023/09/19 00:35:38;;;;;;;21.37;13.85;;;;;;;11.89;71.54;101338.14;1748792;81;21283;-60
2023/09/19 00:38:46;;;;;;;18.27;13.55;;;;;;;11.85;71.56;101340.84;1712001;83;21883;-57
2023/09/19 00:41:52;;;;;;;21.12;14.60;;;;;;;11.80;71.61;101336.34;1776781;80;21229;-58
2023/09/19 00:44:58;;;;;;;16.97;13.98;;;;;;;11.77;71.61;101342.16;1739283;81;21430;-58
2023/09/19 00:48:11;;;;;;;19.65;14.07;;;;;;;11.72;71.61;101338.52;1711923;84;21844;-58
2023/09/19 00:51:13;;;;;;;21.55;13.78;;;;;;;11.69;71.70;101336.10;1780333;80;21851;-57
2023/09/19 00:54:18;;;;;;;17.80;12.70;;;;;;;11.66;71.68;101332.81;1775870;80;21409;-58
2023/09/19 00:57:24;;;;;;;20.82;13.60;;;;;;;11.64;71.69;101340.33;1769286;81;21343;-59
2023/09/19 01:00:30;;;;;;;16.95;13.18;;;;;;;11.61;71.69;101339.25;1779252;80;21354;-58
2023/09/19 01:03:36;;;;;;;17.37;13.32;;;;;;;11.58;71.78;101342.31;1740842;81;21418;-58
2023/09/19 01:06:45;;;;;;;18.25;12.63;;;;;;;11.57;71.92;101340.59;1773383;80;21381;-60
2023/09/19 01:09:51;;;;;;;15.63;12.73;;;;;;;11.56;71.96;101333.41;1772170;80;21378;-57
2023/09/19 01:13:25;;;;;;;16.90;12.90;;;;;;;11.53;71.97;101333.69;1740968;81;21355;-58
2023/09/19 01:16:56;;;;;;;16.17;11.60;;;;;;;11.49;71.95;101332.30;1739349;81;21848;-60
2023/09/19 01:20:50;;;;;;;16.40;12.15;;;;;;;11.45;71.99;101333.13;1742124;80;21212;-59
2023/09/19 01:24:39;;;;;;;16.73;11.88;;;;;;;11.42;71.97;101332.57;1738496;81;21267;-58
2023/09/19 01:28:08;;;;;;;17.10;12.90;;;;;;;11.36;72.01;101336.82;1746170;81;21381;-59
2023/09/19 01:31:05;;;;;;;19.85;13.53;;;;;;;11.33;72.10;101337.64;1743295;80;21351;-59
2023/09/19 01:34:11;;;;;;;20.15;13.05;;;;;;;11.30;72.19;101331.10;1740500;81;21339;-59
2023/09/19 01:37:19;;;;;;;16.32;13.28;;;;;;;11.27;72.29;101333.66;1738389;81;21327;-59
2023/09/19 01:40:27;;;;;;;19.10;12.60;;;;;;;11.27;72.43;101336.41;1738040;81;21729;-59
2023/09/19 01:43:37;;;;;;;20.65;13.58;;;;;;;11.29;72.54;101334.34;1756601;81;21362;-59
2023/09/19 01:46:47;;;;;;;16.93;13.88;;;;;;;11.30;72.57;101337.45;1757280;81;21335;-56
2023/09/19 01:50:03;;;;;;;18.45;12.73;;;;;;;11.29;72.56;101334.87;1729348;81;21828;-58
2023/09/19 01:53:16;;;;;;;17.87;13.58;;;;;;;11.26;72.58;101336.03;1744387;81;21355;-57
2023/09/19 01:56:44;;;;;;;17.60;13.78;;;;;;;11.26;72.64;101333.78;1738299;82;21410;-58
2023/09/19 01:59:56;;;;;;;17.98;14.45;;;;;;;11.24;72.67;101338.06;1737978;82;21379;-57
2023/09/19 02:03:05;;;;;;;20.57;15.18;;;;;;;11.22;72.73;101331.03;1737744;82;21355;-58
2023/09/19 02:06:14;;;;;;;19.25;14.45;;;;;;;11.20;72.78;101329.81;1719749;81;21343;-58
2023/09/19 02:09:24;;;;;;;17.45;13.95;;;;;;;11.21;72.85;101330.69;1728543;82;21399;-57
2023/09/19 02:12:30;;;;;;;20.95;14.78;;;;;;;11.19;72.88;101331.34;1738004;80;21417;-57
2023/09/19 02:15:38;;;;;;;23.00;14.33;;;;;;;11.18;72.97;101328.27;1737816;82;21343;-57
2023/09/19 02:18:44;;;;;;;16.27;13.65;;;;;;;11.16;72.97;101326.17;1730230;81;21378;-58
2023/09/19 02:21:50;;;;;;;16.42;13.13;;;;;;;11.16;73.04;101322.06;1729091;82;21279;-58
2023/09/19 02:25:00;;;;;;;19.73;14.30;;;;;;;11.16;73.13;101320.70;1739733;82;21228;-58
2023/09/19 02:28:05;;;;;;;17.67;13.10;;;;;;;11.15;73.18;101315.72;1739118;82;21390;-59
2023/09/19 02:30:58;;;;;;;18.77;13.88;;;;;;;11.16;73.32;101317.95;1737251;82;21477;-59
2023/09/19 02:34:06;;;;;;;17.42;13.72;;;;;;;11.15;73.35;101311.60;1744459;81;21348;-57
2023/09/19 02:37:13;;;;;;;18.02;14.38;;;;;;;11.13;73.34;101312.26;1740914;81;21331;-58
2023/09/19 02:40:21;;;;;;;17.65;13.88;;;;;;;11.10;73.29;101315.31;1758612;81;21224;-58
2023/09/19 02:43:29;;;;;;;21.48;14.78;;;;;;;11.05;73.31;101308.06;1722246;81;21190;-58
2023/09/19 02:46:39;;;;;;;19.85;14.63;;;;;;;11.04;73.33;101315.08;1739790;81;21918;-58
2023/09/19 02:49:47;;;;;;;21.17;14.30;;;;;;;11.03;73.40;101309.26;1737701;82;21840;-57
2023/09/19 02:52:54;;;;;;;19.65;14.15;;;;;;;11.01;73.47;101320.38;1737697;81;22264;-59
2023/09/19 02:55:54;;;;;;;20.92;15.20;;;;;;;10.99;73.53;101317.45;1737670;81;21867;-59
2023/09/19 02:59:00;;;;;;;19.40;14.53;;;;;;;10.98;73.57;101318.45;1728303;82;21233;-58
2023/09/19 03:02:06;;;;;;;26.33;14.63;;;;;;;10.95;73.65;101311.91;1737720;81;21836;-58
2023/09/19 03:05:14;;;;;;;22.77;14.85;;;;;;;10.94;73.66;101315.69;1737718;81;21435;-58
2023/09/19 03:08:21;;;;;;;18.60;15.03;;;;;;;10.90;73.69;101320.60;1737787;81;21371;-58
2023/09/19 03:11:28;;;;;;;20.02;15.15;;;;;;;10.88;73.73;101314.94;1737968;81;21331;-58
2023/09/19 03:14:35;;;;;;;18.77;15.00;;;;;;;10.84;73.77;101317.12;1738997;81;21355;-59
2023/09/19 03:17:41;;;;;;;20.30;14.95;;;;;;;10.84;73.87;101319.86;1686892;84;21232;-60
2023/09/19 03:20:49;;;;;;;19.27;13.98;;;;;;;10.86;73.93;101327.92;1714056;82;21425;-59
2023/09/19 03:23:55;;;;;;;18.77;13.30;;;;;;;10.85;73.93;101324.80;1773913;80;21401;-59
2023/09/19 03:27:02;;;;;;;18.87;13.85;;;;;;;10.83;73.97;101326.33;1737337;82;21296;-59
2023/09/19 03:30:13;;;;;;;18.37;13.20;;;;;;;10.83;73.97;101335.92;1708784;83;21378;-58
2023/09/19 03:33:21;;;;;;;16.27;12.10;;;;;;;10.82;73.99;101331.97;1761078;80;21227;-57
2023/09/19 03:36:28;;;;;;;20.95;12.58;;;;;;;10.82;73.99;101334.70;1779956;80;21381;-58
2023/09/19 03:39:35;;;;;;;18.48;12.47;;;;;;;10.77;73.87;101339.78;1780378;80;21798;-58
2023/09/19 03:42:41;;;;;;;22.10;15.93;;;;;;;10.75;73.91;101333.62;1747280;81;21282;-58
2023/09/19 03:45:49;;;;;;;21.17;14.98;;;;;;;10.73;73.92;101335.14;1749359;81;21359;-58
2023/09/19 03:48:55;;;;;;;21.52;17.67;;;;;;;10.75;73.98;101334.98;1780705;80;21362;-60
2023/09/19 03:52:01;;;;;;;24.95;18.42;;;;;;;10.72;74.00;101325.71;1747673;80;21259;-60
2023/09/19 03:55:06;;;;;;;26.02;18.75;;;;;;;10.75;74.08;101324.03;1708727;83;21410;-59
2023/09/19 03:58:13;;;;;;;22.17;15.85;;;;;;;10.77;74.13;101328.82;1739891;81;21335;-59
2023/09/19 04:01:20;;;;;;;30.75;19.52;;;;;;;10.77;74.18;101327.45;1772156;81;21855;-59
2023/09/19 04:04:29;;;;;;;37.45;24.85;;;;;;;10.79;74.28;101326.80;1769364;81;21331;-58
2023/09/19 04:07:36;;;;;;;40.83;24.72;;;;;;;10.81;74.33;101322.03;1738386;81;21398;-57
2023/09/19 04:10:45;;;;;;;43.70;24.67;;;;;;;10.85;74.44;101328.42;1748655;81;21358;-58
2023/09/19 04:13:51;;;;;;;45.45;26.57;;;;;;;10.90;74.59;101327.95;1779120;79;21410;-58
2023/09/19 04:16:58;;;;;;;44.60;26.12;;;;;;;10.96;74.70;101334.17;1789387;80;21427;-59
2023/09/19 04:20:07;;;;;;;36.65;23.65;;;;;;;11.01;74.80;101324.98;1798932;78;21852;-59
2023/09/19 04:23:13;;;;;;;29.65;19.10;;;;;;;11.08;74.88;101327.47;1769077;80;21351;-59
2023/09/19 04:26:19;;;;;;;30.57;20.08;;;;;;;11.13;74.98;101325.96;1768907;81;21371;-56
2023/09/19 04:29:29;;;;;;;27.60;17.70;;;;;;;11.20;75.06;101324.33;1768525;81;21358;-58
2023/09/19 04:32:36;;;;;;;28.92;18.17;;;;;;;11.26;75.13;101333.78;1736532;82;21200;-57
2023/09/19 04:35:42;;;;;;;25.85;17.98;;;;;;;11.33;75.17;101326.67;1763775;81;21664;-58
2023/09/19 04:38:50;;;;;;;24.27;16.93;;;;;;;11.39;75.21;101334.26;1767785;80;21837;-57
2023/09/19 04:41:55;;;;;;;27.13;17.85;;;;;;;11.45;75.27;101331.75;1775285;80;21328;-58
2023/09/19 04:45:00;;;;;;;23.95;16.95;;;;;;;11.51;75.32;101330.27;1751467;81;21645;-59
2023/09/19 04:48:08;;;;;;;28.38;18.00;;;;;;;11.57;75.35;101329.13;1768494;79;21271;-59
2023/09/19 04:51:15;;;;;;;29.52;17.98;;;;;;;11.63;75.44;101327.15;1769714;79;21863;-57
2023/09/19 04:54:22;;;;;;;24.12;17.57;;;;;;;11.71;75.49;101320.86;1815336;79;21176;-58
2023/09/19 04:57:28;;;;;;;23.27;17.42;;;;;;;11.79;75.57;101320.91;1791418;78;21627;-58
2023/09/19 05:00:35;;;;;;;31.65;17.25;;;;;;;11.88;75.68;101317.20;1791119;78;21275;-59
2023/09/19 05:03:41;;;;;;;28.87;18.10;;;;;;;11.97;75.77;101316.25;1740390;79;21786;-56
2023/09/19 05:06:49;;;;;;;25.08;17.60;;;;;;;12.08;75.89;101314.06;1748546;79;21551;-56
2023/09/19 05:09:55;;;;;;;28.98;17.60;;;;;;;12.19;76.02;101306.58;1736073;81;21353;-57
2023/09/19 05:13:04;;;;;;;25.60;17.37;;;;;;;12.31;76.12;101309.38;1735139;82;21248;-56
2023/09/19 05:16:11;;;;;;;31.97;18.80;;;;;;;12.43;76.19;101305.33;1754338;80;21746;-55
2023/09/19 05:19:17;;;;;;;21.82;17.02;;;;;;;12.53;76.28;101306.91;1751851;79;21483;-58
2023/09/19 05:22:24;;;;;;;23.10;17.20;;;;;;;12.64;76.37;101301.11;1747855;81;21186;-58
2023/09/19 05:25:30;;;;;;;27.20;17.95;;;;;;;12.76;76.41;101297.54;1766458;79;21422;-58
2023/09/19 05:28:37;;;;;;;29.45;17.77;;;;;;;12.86;76.47;101304.60;1767409;79;21256;-58
2023/09/19 05:31:43;;;;;;;26.82;17.60;;;;;;;12.98;76.54;101299.15;1757986;80;21359;-58
2023/09/19 05:34:56;;;;;;;22.37;16.97;;;;;;;13.09;76.58;101301.61;1736493;81;21788;-58
2023/09/19 05:38:08;;;;;;;24.65;17.12;;;;;;;13.21;76.61;101304.36;1743227;81;21347;-58
2023/09/19 05:41:13;;;;;;;28.50;17.23;;;;;;;13.32;76.66;101298.52;1745786;80;21529;-58
2023/09/19 05:44:22;;;;;;;25.00;17.57;;;;;;;13.45;76.72;101303.00;1753893;81;21367;-58
2023/09/19 05:47:29;;;;;;;24.57;18.62;;;;;;;13.57;76.75;101297.14;1736923;81;21210;-58
2023/09/19 05:50:37;;;;;;;25.55;18.85;;;;;;;13.69;76.79;101299.88;1736978;82;21884;-58
2023/09/19 05:53:48;;;;;;;42.00;26.35;;;;;;;13.82;76.83;101304.34;1738149;81;21345;-57
2023/09/19 05:56:55;;;;;;;26.23;17.62;;;;;;;13.94;76.88;101299.67;1739990;81;21271;-58
2023/09/19 06:00:08;;;;;;;25.68;17.80;;;;;;;14.07;76.92;101304.63;1753130;81;21531;-57
2023/09/19 06:03:12;;;;;;;22.50;17.60;;;;;;;14.19;77.00;101298.56;1753682;80;21414;-58
2023/09/19 06:06:18;;;;;;;24.50;17.42;;;;;;;14.33;77.08;101294.27;1743867;81;21181;-58
2023/09/19 06:09:27;;;;;;;22.85;16.73;;;;;;;14.46;77.13;101291.81;1763525;81;21892;-57
2023/09/19 06:12:35;;;;;;;20.97;16.82;;;;;;;14.61;77.22;101295.52;1747796;80;21363;-59
2023/09/19 06:15:40;;;;;;;19.90;15.90;;;;;;;14.74;77.26;101293.91;1730297;80;21830;-58
2023/09/19 06:18:45;;;;;;;27.27;17.90;;;;;;;14.88;77.35;101293.14;1720972;82;21355;-57
2023/09/19 06:21:50;;;;;;;22.60;16.27;;;;;;;15.03;77.38;101287.70;1711287;82;21382;-58
2023/09/19 06:24:57;;;;;;;21.23;16.82;;;;;;;15.17;77.43;101289.67;1777301;79;21221;-59
2023/09/19 06:28:06;;;;;;;21.27;16.48;;;;;;;15.32;77.50;101284.22;1775434;79;21823;-57
2023/09/19 06:31:12;;;;;;;22.45;16.60;;;;;;;15.47;77.52;101286.53;1781215;79;21376;-58
2023/09/19 06:34:19;;;;;;;20.05;15.55;;;;;;;15.61;77.58;101292.09;1783992;79;21220;-53
2023/09/19 06:37:27;;;;;;;19.50;15.60;;;;;;;15.74;77.65;101289.56;1777526;79;21284;-57
2023/09/19 06:40:34;;;;;;;23.07;14.85;;;;;;;15.89;77.67;101291.81;1740834;81;21478;-58
2023/09/19 06:43:47;;;;;;;17.27;14.55;;;;;;;16.06;77.76;101289.21;1728188;81;21214;-58
2023/09/19 06:46:53;;;;;;;26.12;15.83;;;;;;;16.23;77.77;101299.05;1768915;79;21761;-59
2023/09/19 06:50:02;;;;;;;19.67;14.60;;;;;;;16.39;77.79;101300.77;1770876;80;21801;-57
2023/09/19 06:53:09;;;;;;;20.57;13.72;;;;;;;16.55;77.77;101295.08;1789238;79;21744;-56
2023/09/19 06:56:15;;;;;;;15.85;12.18;;;;;;;16.71;77.78;101294.86;1808169;79;21189;-56
2023/09/19 06:59:22;;;;;;;18.20;13.00;;;;;;;16.87;77.75;101295.16;1773220;79;21705;-54
2023/09/19 07:02:28;;;;;;;17.07;12.98;;;;;;;17.02;77.72;101288.53;1767547;80;21260;-55
2023/09/19 07:05:42;;;;;;;16.35;12.37;;;;;;;17.17;77.69;101294.86;1762853;79;21713;-55
2023/09/19 07:08:46;;;;;;;19.95;12.53;;;;;;;17.32;77.66;101292.03;1741062;81;21221;-55
2023/09/19 07:11:52;;;;;;;19.42;11.12;;;;;;;17.46;77.61;101286.98;1768508;79;21737;-54
2023/09/19 07:15:27;;;;;;;17.32;11.50;;;;;;;17.62;77.59;101288.09;1786957;78;21267;31
2023/09/19 07:18:39;;;;;;;13.95;9.95;;;;;;;17.72;77.52;101281.19;1677834;84;21241;-54
2023/09/19 07:21:47;;;;;;;12.78;9.60;;;;;;;17.90;77.45;101291.22;1713326;82;21773;-55
2023/09/19 07:24:52;;;;;;;14.23;9.68;;;;;;;18.06;77.36;101298.37;1686357;83;21254;-54
2023/09/19 07:28:00;;;;;;;13.40;9.98;;;;;;;18.21;77.27;101285.79;1677210;83;21775;-54
2023/09/19 07:31:09;;;;;;;13.13;9.23;;;;;;;18.33;77.21;101286.40;1700050;83;21930;-53
2023/09/19 07:34:15;;;;;;;12.85;8.85;;;;;;;18.45;77.14;101277.88;1677382;83;21618;-53
2023/09/19 07:37:21;;;;;;;14.45;9.63;;;;;;;18.59;77.03;101280.17;1669262;83;21229;-52
2023/09/19 07:40:28;;;;;;;12.28;8.58;;;;;;;18.74;76.89;101275.36;1693491;83;21229;-53
2023/09/19 07:43:38;;;;;;;12.40;8.38;;;;;;;18.91;76.82;101275.31;1685020;83;21217;-52
2023/09/19 07:46:46;;;;;;;15.58;8.80;;;;;;;19.02;76.70;101264.47;1684948;83;21276;-50
2023/09/19 07:49:55;;;;;;;11.12;8.80;;;;;;;19.17;76.57;101270.68;1684039;83;21248;-50
2023/09/19 07:53:04;;;;;;;13.53;8.05;;;;;;;19.29;76.41;101274.60;1688255;81;21328;-51
2023/09/19 07:56:14;;;;;;;11.28;8.68;;;;;;;19.42;76.32;101275.16;1676952;82;21312;-50
2023/09/19 07:59:20;;;;;;;13.93;8.08;;;;;;;19.55;76.22;101267.37;1678038;83;21818;-49
2023/09/19 08:02:28;;;;;;;11.95;8.30;;;;;;;19.66;76.02;101265.34;1698385;83;21741;-50
2023/09/19 08:05:34;;;;;;;9.98;7.60;;;;;;;19.76;75.85;101268.52;1683797;83;21751;-50
2023/09/19 08:08:43;;;;;;;10.80;7.35;;;;;;;19.86;75.73;101254.54;1681053;83;21233;-50
2023/09/19 08:11:51;;;;;;;14.28;8.00;;;;;;;20.00;75.61;101261.79;1678647;83;21237;-49
2023/09/19 08:14:58;;;;;;;12.47;7.35;;;;;;;20.12;75.43;101262.00;1673046;84;21244;-49
2023/09/19 08:18:03;;;;;;;10.20;7.03;;;;;;;20.25;75.27;101255.03;1719521;82;21797;-48
2023/09/19 08:21:11;;;;;;;8.48;6.53;;;;;;;20.33;75.09;101243.66;1738937;80;21207;-52
2023/09/19 08:24:18;;;;;;;10.20;6.75;;;;;;;20.44;74.87;101242.47;1738641;80;21262;-54
2023/09/19 08:27:26;;;;;;;9.65;6.80;;;;;;;20.55;74.68;101243.73;1703059;82;21218;-49
2023/09/19 08:30:34;;;;;;;10.35;7.00;;;;;;;20.65;74.48;101237.14;1676822;83;21806;-53
2023/09/19 08:33:44;;;;;;;13.00;7.20;;;;;;;20.76;74.24;101229.48;1701586;82;21207;-54
2023/09/19 08:36:49;;;;;;;10.75;7.92;;;;;;;20.89;74.05;101221.60;1687612;83;21232;-53
2023/09/19 08:39:56;;;;;;;9.88;7.65;;;;;;;20.99;73.89;101219.23;1710803;82;21202;-54
2023/09/19 08:43:03;;;;;;;13.20;6.72;;;;;;;21.05;73.61;101216.41;1673972;83;21200;-56
2023/09/19 08:46:17;;;;;;;10.43;6.65;;;;;;;21.14;73.39;101216.45;1702391;82;21200;-55
2023/09/19 08:49:36;;;;;;;8.23;5.83;;;;;;;21.25;73.12;101215.73;1702131;82;21227;-55
2023/09/19 08:52:47;;;;;;;7.55;5.80;;;;;;;21.36;72.78;101215.00;1707431;82;21176;-54
2023/09/19 08:55:57;;;;;;;7.37;5.87;;;;;;;21.47;72.59;101211.48;1674286;83;21740;-54
2023/09/19 08:59:12;;;;;;;10.35;6.05;;;;;;;21.58;72.40;101207.96;1735860;82;21202;-54
2023/09/19 09:02:19;;;;;;;9.65;5.80;;;;;;;21.68;72.17;101212.49;1670171;83;21401;-53
2023/09/19 09:05:28;;;;;;;9.75;6.35;;;;;;;21.78;71.90;101207.30;1698081;82;21180;-55
2023/09/19 09:08:38;;;;;;;7.12;5.70;;;;;;;21.91;71.65;101206.31;1662699;82;21824;-54
2023/09/19 09:11:45;;;;;;;7.87;6.60;;;;;;;22.00;71.33;101209.97;1703519;82;21263;-55
2023/09/19 09:14:53;;;;;;;7.53;5.97;;;;;;;22.10;71.05;101203.30;1680756;85;21776;-53
2023/09/19 09:17:59;;;;;;;10.58;6.17;;;;;;;22.17;70.73;101199.05;1677144;79;22287;-54
2023/09/19 09:21:06;;;;;;;8.83;5.67;;;;;;;22.24;70.38;101195.66;1719925;82;21223;-54
2023/09/19 09:24:39;;;;;;;6.75;5.25;;;;;;;22.32;70.02;101199.53;1718869;82;21816;-54
2023/09/19 09:27:45;;;;;;;8.60;5.97;;;;;;;22.41;69.69;101199.52;1709958;82;21556;-53
2023/09/19 09:30:51;;;;;;;10.03;6.50;;;;;;;22.51;69.33;101186.41;1702212;82;21624;-52
2023/09/19 09:34:02;;;;;;;6.92;5.75;;;;;;;22.61;69.03;101192.33;1715798;82;21277;-53
2023/09/19 09:37:10;;;;;;;7.30;5.50;;;;;;;22.69;68.63;101180.84;1662071;85;21751;-57
2023/09/19 09:43:48;;;;;;;11.97;6.50;;;;;;;22.89;67.99;101189.79;1662963;85;21259;-57
2023/09/19 09:50:19;;;;;;;9.28;7.00;;;;;;;23.06;67.16;101188.02;1686621;82;21788;-55
2023/09/19 09:53:33;;;;;;;9.30;6.12;;;;;;;23.12;66.74;101180.11;1699308;83;21639;-55
2023/09/19 09:56:40;;;;;;;11.05;6.03;;;;;;;23.19;66.35;101176.66;1685442;85;21378;-57
2023/09/19 10:00:16;;;;;;;8.45;5.60;;;;;;;23.28;65.98;101183.63;1706008;83;21901;-58
2023/09/19 10:03:07;;;;;;;9.85;5.80;;;;;;;23.35;65.71;101176.86;1716240;82;21398;-58
2023/09/19 10:06:30;;;;;;;11.55;6.15;;;;;;;23.43;65.33;101173.72;1679393;83;21403;-55
2023/09/19 10:09:36;;;;;;;7.45;6.08;;;;;;;23.50;64.98;101167.98;1706538;81;21217;-56
2023/09/19 10:12:41;;;;;;;6.70;5.67;;;;;;;23.57;64.56;101162.61;1705447;83;21229;-55
2023/09/19 10:15:50;;;;;;;6.95;6.22;;;;;;;23.66;64.20;101165.87;1680433;83;21580;-55
2023/09/19 10:18:58;;;;;;;9.25;5.53;;;;;;;23.73;63.82;101163.83;1683841;83;21925;-56
2023/09/19 10:22:05;;;;;;;11.03;6.05;;;;;;;23.80;63.37;101158.12;1661681;84;21417;-55
2023/09/19 10:25:12;;;;;;;9.48;6.17;;;;;;;23.86;62.93;101152.41;1704476;83;21287;-54
2023/09/19 10:31:47;;;;;;;8.33;5.87;;;;;;;24.00;62.23;101144.09;1693667;81;21255;-55
2023/09/19 10:34:55;;;;;;;9.23;5.60;;;;;;;24.10;61.80;101142.07;1685433;83;21275;-57
2023/09/19 10:37:59;;;;;;;8.40;5.83;;;;;;;24.17;61.46;101137.17;1694707;82;21233;-56
2023/09/19 10:41:05;;;;;;;11.85;6.33;;;;;;;24.25;61.27;101136.25;1698212;82;21286;-56
2023/09/19 10:44:18;;;;;;;9.55;5.62;;;;;;;24.35;60.96;101125.28;1673193;84;21275;-56
2023/09/19 10:47:25;;;;;;;7.58;6.20;;;;;;;24.44;60.46;101125.19;1682374;84;22005;-54
2023/09/19 10:50:31;;;;;;;9.50;6.08;;;;;;;24.51;60.09;101100.70;1708260;82;21436;-54
2023/09/19 10:53:50;;;;;;;9.48;6.00;;;;;;;24.60;59.70;101120.20;1688291;81;21208;-55
2023/09/19 10:56:59;;;;;;;8.05;6.25;;;;;;;24.69;59.37;101117.32;1680411;84;21251;-56
2023/09/19 11:03:33;;;;;;;10.32;5.85;;;;;;;24.86;58.48;101106.17;1656253;83;21240;-61
2023/09/19 11:06:41;;;;;;;8.40;5.67;;;;;;;24.94;58.04;101100.98;1681331;82;21353;-59
2023/09/19 11:10:04;;;;;;;11.43;5.87;;;;;;;25.04;57.71;101105.38;1687428;82;21192;-60
2023/09/19 11:13:37;;;;;;;9.43;6.12;;;;;;;25.16;57.38;101098.31;1694256;82;21434;-59
2023/09/19 11:16:47;;;;;;;9.83;6.15;;;;;;;25.34;57.06;101091.64;1668704;82;21227;-56
2023/09/19 11:20:24;;;;;;;10.65;5.20;;;;;;;25.48;56.64;101094.39;1684267;82;21622;-54
2023/09/19 11:23:27;;;;;;;8.15;5.45;;;;;;;25.57;56.22;101088.63;1671540;83;21281;-51
2023/09/19 11:26:59;;;;;;;9.30;6.12;;;;;;;25.68;55.71;101082.93;1673259;82;21820;-56
2023/09/19 11:30:40;;;;;;;11.25;5.85;;;;;;;25.79;55.23;101086.18;1662277;84;21510;-55
2023/09/19 11:33:51;;;;;;;9.60;5.80;;;;;;;25.90;54.80;101078.20;1666260;85;21799;-55
2023/09/19 11:36:59;;;;;;;10.85;6.05;;;;;;;26.02;54.34;101078.13;1692311;84;21241;-56
2023/09/19 11:40:17;;;;;;;9.98;5.78;;;;;;;26.10;53.86;101079.91;1719814;81;21228;-54
2023/09/19 11:43:40;;;;;;;9.40;5.90;;;;;;;26.14;53.37;101071.81;1655771;84;21613;-56
2023/09/19 11:47:03;;;;;;;8.83;6.17;;;;;;;26.21;52.91;101064.88;1688419;83;21268;-55
2023/09/19 11:50:11;;;;;;;8.28;5.87;;;;;;;26.28;52.55;101060.47;1676121;81;22091;-56
2023/09/19 11:53:21;;;;;;;7.83;5.37;;;;;;;26.33;52.04;101056.33;1668180;84;21341;-58
2023/09/19 11:56:31;;;;;;;8.53;6.00;;;;;;;26.34;51.52;101056.06;1658441;83;21325;-58
2023/09/19 11:59:40;;;;;;;6.70;5.75;;;;;;;26.39;51.13;101051.91;1687505;83;21273;-55
2023/09/19 12:02:48;;;;;;;7.35;5.55;;;;;;;26.39;50.67;101056.12;1680410;83;21225;-55
2023/09/19 12:05:57;;;;;;;10.63;6.10;;;;;;;26.36;50.22;101048.78;1697546;83;21273;-58
2023/09/19 12:09:07;;;;;;;8.23;5.53;;;;;;;26.36;49.91;101052.45;1712370;83;21210;-59
2023/09/19 12:12:16;;;;;;;9.25;6.40;;;;;;;26.39;49.54;101048.25;1694049;83;21198;-58
2023/09/19 12:15:34;;;;;;;10.70;5.78;;;;;;;26.38;49.20;101035.33;1696056;83;21268;-57
2023/09/19 12:18:37;;;;;;;8.70;5.72;;;;;;;26.39;48.84;101032.26;1671656;83;21220;-56
2023/09/19 12:21:45;;;;;;;7.25;5.37;;;;;;;26.39;48.49;101021.57;1706349;80;21380;-58
2023/09/19 12:24:50;;;;;;;8.13;6.00;;;;;;;26.38;48.15;101029.17;1713633;82;21783;-60
2023/09/19 12:27:58;;;;;;;10.15;6.15;;;;;;;26.39;47.92;101025.78;1705803;82;21242;-59
2023/09/19 12:31:07;;;;;;;9.00;5.95;;;;;;;26.40;47.70;101022.71;1673144;83;21615;-57
2023/09/19 12:34:14;;;;;;;9.53;5.92;;;;;;;26.41;47.35;101020.22;1713450;82;21200;-58
2023/09/19 12:37:22;;;;;;;12.15;6.35;;;;;;;26.41;47.05;101015.14;1699422;82;21235;-56
2023/09/19 12:40:32;;;;;;;10.00;6.28;;;;;;;26.36;46.71;101009.47;1685403;82;21244;-59
2023/09/19 12:43:39;;;;;;;7.47;5.72;;;;;;;26.31;46.42;101013.08;1709025;81;21609;-57
2023/09/19 12:46:45;;;;;;;9.05;5.78;;;;;;;26.26;46.06;100999.52;1723777;82;21219;-57
2023/09/19 12:50:16;;;;;;;10.45;6.45;;;;;;;26.20;45.87;101003.39;1701670;81;21880;-57
2023/09/19 12:53:33;;;;;;;9.33;6.15;;;;;;;26.16;45.64;100997.44;1683796;82;21766;-56
2023/09/19 12:56:54;;;;;;;7.55;5.72;;;;;;;26.11;45.38;100991.80;1699905;82;21820;-56
2023/09/19 13:00:01;;;;;;;8.55;5.60;;;;;;;26.08;45.14;100990.92;1700571;83;21227;-59
2023/09/19 13:03:32;;;;;;;6.67;5.08;;;;;;;26.04;44.87;100997.30;1705005;82;21231;-61
2023/09/19 13:06:48;;;;;;;;;;;;;;;26.01;44.64;100988.00;1689984;83;21264;-61
2023/09/19 13:10:15;;;;;;;10.32;5.67;;;;;;;25.98;44.41;100992.70;1671850;84;20292;-61
2023/09/19 13:13:33;;;;;;;9.25;5.12;;;;;;;25.92;44.19;100990.41;1712342;82;21234;-63
2023/09/19 13:16:38;;;;;;;7.17;5.03;;;;;;;25.86;43.95;100984.41;1670489;84;21298;-62
2023/09/19 13:19:57;;;;;;;11.00;5.37;;;;;;;25.81;43.67;100984.38;1692245;82;21223;-61
2023/09/19 13:23:10;;;;;;;6.67;5.47;;;;;;;25.76;43.50;100976.43;1669863;83;21252;-63
2023/09/19 13:26:12;;;;;;;7.95;5.00;;;;;;;25.71;43.25;100970.75;1692286;82;21200;-61
2023/09/19 13:29:19;;;;;;;9.13;5.28;;;;;;;25.65;43.01;100970.39;1710757;82;22090;-62
2023/09/19 13:32:29;;;;;;;9.10;5.80;;;;;;;25.62;42.88;100972.32;1695636;82;21212;-61
2023/09/19 13:36:05;;;;;;;8.35;5.25;;;;;;;25.56;42.64;100963.55;1687616;83;21235;-62
2023/09/19 13:39:25;;;;;;;8.40;5.42;;;;;;;25.50;42.42;100958.41;1698797;82;21240;-57
2023/09/19 13:42:39;;;;;;;7.15;5.33;;;;;;;25.48;42.18;100952.20;1833901;76;22223;-58
2023/09/19 13:45:46;;;;;;;9.25;5.22;;;;;;;25.41;42.04;100959.12;1772625;79;21260;-58
2023/09/19 13:48:55;;;;;;;5.75;4.75;;;;;;;25.36;41.88;100951.48;1758957;80;21213;-58
2023/09/19 13:52:07;;;;;;;6.40;5.53;;;;;;;25.32;41.75;100958.70;1742645;80;21224;-57
2023/09/19 13:55:14;;;;;;;7.90;4.80;;;;;;;25.27;41.61;100958.63;1765033;79;21362;-58
2023/09/19 13:58:27;;;;;;;9.10;5.17;;;;;;;25.21;41.49;100956.00;1737344;80;21200;-58
2023/09/19 14:01:33;;;;;;;11.68;5.17;;;;;;;25.17;41.41;100943.05;1764585;81;22125;-58
2023/09/19 14:04:40;;;;;;;11.05;7.03;;;;;;;25.16;41.32;100946.11;1763523;81;21236;-57
2023/09/19 14:07:47;;;;;;;9.33;6.28;;;;;;;25.13;41.22;100943.83;1767049;79;21240;-65
2023/09/19 14:10:52;;;;;;;9.68;6.87;;;;;;;25.10;41.10;100938.73;1767732;80;21683;-59
2023/09/19 14:14:00;;;;;;;10.90;7.10;;;;;;;25.04;41.00;100942.00;1769023;79;21518;-60
2023/09/19 14:17:07;;;;;;;9.85;5.80;;;;;;;24.97;40.91;100933.77;1771111;80;21197;-59
2023/09/19 14:20:15;;;;;;;7.35;5.47;;;;;;;24.91;40.92;100929.77;1769392;79;21183;-58
2023/09/19 14:23:23;;;;;;;9.80;6.55;;;;;;;24.86;40.87;100923.52;1749591;80;21254;-58
2023/09/19 14:26:29;;;;;;;10.70;6.55;;;;;;;24.82;40.81;100927.08;1736880;81;21182;-58
2023/09/19 14:29:34;;;;;;;15.85;6.55;;;;;;;24.76;40.76;100916.91;1743979;79;21181;-61
2023/09/19 14:32:41;;;;;;;8.65;6.72;;;;;;;24.69;40.70;100919.88;1739684;82;21880;-60
2023/09/19 14:35:47;;;;;;;9.75;6.75;;;;;;;24.63;40.68;100925.07;1742987;81;21227;-59
2023/09/19 14:38:56;;;;;;;13.72;7.17;;;;;;;24.54;40.67;100921.01;1770456;80;21196;-59
2023/09/19 14:42:02;;;;;;;9.18;7.00;;;;;;;24.45;40.65;100915.51;1770562;79;21228;-58
2023/09/19 14:45:07;;;;;;;8.63;6.75;;;;;;;24.36;40.64;100914.23;1771451;79;21237;-58